createdAt,value
2019-02-16T00:00:24.613Z,1.90
2019-02-16T00:02:53.030Z,2.00
2019-02-16T00:05:21.769Z,2.00
2019-02-16T00:07:50.171Z,2.00
2019-02-16T00:10:18.581Z,1.90
2019-02-16T00:12:46.984Z,1.80
2019-02-16T00:15:15.389Z,1.70
2019-02-16T00:17:43.850Z,1.50
2019-02-16T00:20:12.549Z,1.40
2019-02-16T00:22:40.969Z,1.40
2019-02-16T00:25:09.365Z,1.40
2019-02-16T00:27:37.794Z,1.50
2019-02-16T00:30:07.541Z,1.70
2019-02-16T00:32:35.977Z,1.70
2019-02-16T00:35:05.319Z,1.70
2019-02-16T00:37:33.735Z,1.70
2019-02-16T00:40:02.254Z,1.80
2019-02-16T00:42:30.721Z,1.90
2019-02-16T00:44:59.120Z,2.10
2019-02-16T00:47:27.539Z,2.20
2019-02-16T00:49:55.928Z,2.30
2019-02-16T00:52:24.333Z,2.30
2019-02-16T00:54:52.780Z,2.20
2019-02-16T00:57:21.180Z,2.00
2019-02-16T00:59:49.645Z,1.90
2019-02-16T01:02:18.071Z,1.80
2019-02-16T01:04:47.399Z,1.80
2019-02-16T01:07:15.833Z,1.80
2019-02-16T01:09:44.276Z,1.90
2019-02-16T01:12:12.686Z,1.80
2019-02-16T01:14:41.085Z,1.80
2019-02-16T01:17:09.809Z,1.60
2019-02-16T01:19:38.253Z,1.60
2019-02-16T01:22:06.669Z,1.60
2019-02-16T01:24:35.109Z,1.40
2019-02-16T01:27:03.522Z,1.50
2019-02-16T01:29:31.954Z,1.40
2019-02-16T01:32:00.417Z,1.40
2019-02-16T01:34:28.843Z,1.30
2019-02-16T01:36:57.252Z,1.10
2019-02-16T01:39:25.669Z,1.10
2019-02-16T01:41:54.065Z,1.00
2019-02-16T01:44:22.639Z,1.10
2019-02-16T01:46:51.032Z,1.10
2019-02-16T01:49:19.456Z,1.10
2019-02-16T01:51:48.073Z,1.00
2019-02-16T01:54:16.573Z,1.10
2019-02-16T01:56:45.011Z,1.20
2019-02-16T01:59:13.433Z,1.20
2019-02-16T02:01:41.832Z,1.10
2019-02-16T02:04:10.242Z,0.90
2019-02-16T02:06:38.670Z,0.90
2019-02-16T02:09:07.445Z,0.80
2019-02-16T02:11:36.202Z,0.90
2019-02-16T02:14:05.025Z,1.00
2019-02-16T02:16:33.706Z,1.00
2019-02-16T02:19:02.141Z,1.00
2019-02-16T02:21:30.549Z,1.00
2019-02-16T02:23:58.976Z,0.90
2019-02-16T02:26:27.406Z,0.90
2019-02-16T02:28:55.830Z,1.00
2019-02-16T02:31:24.268Z,1.00
2019-02-16T02:33:52.723Z,0.90
2019-02-16T02:36:21.141Z,0.80
2019-02-16T02:38:49.576Z,0.80
2019-02-16T02:41:17.977Z,0.80
2019-02-16T02:43:46.386Z,0.80
2019-02-16T02:46:14.827Z,0.70
2019-02-16T02:48:43.245Z,0.70
2019-02-16T02:51:11.925Z,0.70
2019-02-16T02:53:40.356Z,0.70
2019-02-16T02:56:08.785Z,0.70
2019-02-16T02:58:37.214Z,0.70
2019-02-16T03:01:05.963Z,0.70
2019-02-16T03:03:34.364Z,0.70
2019-02-16T03:06:02.765Z,0.70
2019-02-16T03:08:31.164Z,0.60
2019-02-16T03:10:59.579Z,0.60
2019-02-16T03:13:28.010Z,0.60
2019-02-16T03:15:56.477Z,0.50
2019-02-16T03:18:24.990Z,0.40
2019-02-16T03:20:53.417Z,0.30
2019-02-16T03:23:21.839Z,0.30
2019-02-16T03:25:56.338Z,0.40
2019-02-16T03:28:39.389Z,0.50
2019-02-16T03:31:30.455Z,0.50
2019-02-16T03:34:04.583Z,0.40
2019-02-16T03:36:54.105Z,0.40
2019-02-16T03:39:22.574Z,0.40
2019-02-16T03:41:51.052Z,0.40
2019-02-16T03:44:19.453Z,0.40
2019-02-16T03:46:47.869Z,0.50
2019-02-16T03:49:16.269Z,0.50
2019-02-16T03:51:44.689Z,0.40
2019-02-16T03:54:13.113Z,0.50
2019-02-16T03:56:41.519Z,0.50
2019-02-16T03:59:09.927Z,0.60
2019-02-16T04:01:38.336Z,0.60
2019-02-16T04:04:06.745Z,0.50
2019-02-16T04:06:35.145Z,0.60
2019-02-16T04:09:06.026Z,0.60
2019-02-16T04:11:34.701Z,0.60
2019-02-16T04:14:03.123Z,0.50
2019-02-16T04:16:31.527Z,0.50
2019-02-16T04:18:59.991Z,0.50
2019-02-16T04:21:28.413Z,0.50
2019-02-16T04:23:56.866Z,0.40
2019-02-16T04:26:25.252Z,0.40
2019-02-16T04:28:53.668Z,0.40
2019-02-16T04:31:22.065Z,0.40
2019-02-16T04:33:50.486Z,0.40
2019-02-16T04:36:18.917Z,0.40
2019-02-16T04:38:47.402Z,0.40
2019-02-16T04:41:15.839Z,0.50
2019-02-16T04:43:44.237Z,0.40
2019-02-16T04:46:12.647Z,0.30
2019-02-16T04:48:41.053Z,0.40
2019-02-16T04:51:09.486Z,0.30
2019-02-16T04:53:37.902Z,0.30
2019-02-16T04:56:06.307Z,0.30
2019-02-16T04:58:34.745Z,0.40
2019-02-16T05:01:03.175Z,0.40
2019-02-16T05:03:31.594Z,0.30
2019-02-16T05:06:00.224Z,0.30
2019-02-16T05:08:28.681Z,0.20
2019-02-16T05:10:57.087Z,0.20
2019-02-16T05:13:25.602Z,0.20
2019-02-16T05:15:54.007Z,0.10
2019-02-16T05:18:22.745Z,0.00
2019-02-16T05:20:51.143Z,0.00
2019-02-16T05:23:19.584Z,0.00
2019-02-16T05:25:48.401Z,0.00
2019-02-16T05:28:16.805Z,0.00
2019-02-16T05:30:45.201Z,0.00
2019-02-16T05:33:13.646Z,0.00
2019-02-16T05:35:42.065Z,0.00
2019-02-16T05:38:10.493Z,0.10
2019-02-16T05:40:38.880Z,0.00
2019-02-16T05:43:07.282Z,0.00
2019-02-16T05:45:35.699Z,0.10
2019-02-16T05:48:04.189Z,0.00
2019-02-16T05:50:32.614Z,0.00
2019-02-16T05:53:01.018Z,-0.10
2019-02-16T05:55:29.453Z,-0.10
2019-02-16T05:58:17.213Z,-0.10
2019-02-16T06:00:45.624Z,-0.20
2019-02-16T06:03:14.041Z,-0.30
2019-02-16T06:05:42.484Z,-0.30
2019-02-16T06:08:10.981Z,-0.20
2019-02-16T06:10:39.410Z,-0.30
2019-02-16T06:13:07.808Z,-0.30
2019-02-16T06:15:36.285Z,-0.20
2019-02-16T06:18:24.057Z,-0.20
2019-02-16T06:20:52.481Z,-0.20
2019-02-16T06:23:20.886Z,-0.20
2019-02-16T06:25:49.305Z,-0.20
2019-02-16T06:28:17.793Z,-0.20
2019-02-16T06:30:46.553Z,-0.20
2019-02-16T06:33:14.997Z,-0.20
2019-02-16T06:35:45.418Z,-0.30
2019-02-16T06:38:13.825Z,-0.30
2019-02-16T06:40:42.256Z,-0.30
2019-02-16T06:43:10.678Z,-0.30
2019-02-16T06:45:39.084Z,-0.30
2019-02-16T06:48:07.510Z,-0.30
2019-02-16T06:50:37.238Z,-0.20
2019-02-16T06:53:12.957Z,-0.10
2019-02-16T06:55:40.561Z,-0.10
2019-02-16T06:58:08.998Z,-0.10
2019-02-16T07:00:37.409Z,-0.10
2019-02-16T07:03:05.814Z,-0.20
2019-02-16T07:05:34.286Z,-0.20
2019-02-16T07:08:02.757Z,-0.30
2019-02-16T07:10:31.174Z,-0.20
2019-02-16T07:12:59.610Z,-0.20
2019-02-16T07:15:28.298Z,-0.10
2019-02-16T07:18:01.358Z,0.00
2019-02-16T07:20:29.781Z,0.10
2019-02-16T07:22:58.186Z,0.20
2019-02-16T07:25:26.611Z,0.30
2019-02-16T07:27:55.031Z,0.30
2019-02-16T07:30:23.434Z,0.50
2019-02-16T07:32:51.902Z,0.60
2019-02-16T07:35:20.338Z,0.70
2019-02-16T07:37:48.799Z,0.90
2019-02-16T07:40:17.274Z,1.10
2019-02-16T07:42:50.358Z,1.50
2019-02-16T07:45:28.334Z,1.80
2019-02-16T07:47:58.469Z,2.20
2019-02-16T07:50:28.530Z,2.50
2019-02-16T07:52:58.598Z,2.70
2019-02-16T07:55:28.684Z,2.90
2019-02-16T07:58:01.653Z,3.30
2019-02-16T08:00:47.019Z,3.60
2019-02-16T08:03:17.275Z,3.80
2019-02-16T08:05:47.318Z,4.00
2019-02-16T08:08:33.897Z,4.20
2019-02-16T08:11:06.356Z,4.40
2019-02-16T08:13:42.610Z,4.60
2019-02-16T08:16:21.645Z,4.90
2019-02-16T08:18:51.990Z,5.20
2019-02-16T08:21:24.777Z,5.40
2019-02-16T08:24:00.801Z,5.50
2019-02-16T08:26:43.386Z,5.60
2019-02-16T08:29:16.308Z,5.80
2019-02-16T08:31:48.844Z,6.00
2019-02-16T08:34:21.557Z,6.30
2019-02-16T08:36:57.591Z,6.70
2019-02-16T08:39:30.341Z,7.00
2019-02-16T08:42:03.211Z,7.10
2019-02-16T08:44:45.522Z,7.20
2019-02-16T08:47:24.350Z,7.20
2019-02-16T08:50:03.163Z,7.20
2019-02-16T08:52:36.230Z,7.20
2019-02-16T08:55:19.377Z,7.30
2019-02-16T08:57:52.098Z,7.30
2019-02-16T09:00:22.150Z,7.50
2019-02-16T09:03:08.665Z,7.60
2019-02-16T09:05:38.709Z,8.00
2019-02-16T09:08:17.461Z,8.20
2019-02-16T09:11:03.961Z,8.30
2019-02-16T09:13:34.281Z,8.30
2019-02-16T09:16:04.322Z,8.40
2019-02-16T09:18:59.570Z,8.20
2019-02-16T09:21:32.039Z,8.30
2019-02-16T09:24:02.084Z,8.30
2019-02-16T09:26:38.206Z,8.40
2019-02-16T09:29:14.453Z,8.50
2019-02-16T09:31:44.486Z,8.60
2019-02-16T09:34:31.051Z,9.00
2019-02-16T09:37:17.350Z,9.30
2019-02-16T09:39:59.389Z,9.70
2019-02-16T09:42:34.953Z,9.50
2019-02-16T09:45:20.382Z,9.30
2019-02-16T09:47:50.490Z,9.50
2019-02-16T09:50:20.561Z,9.90
2019-02-16T09:52:50.635Z,10.40
2019-02-16T09:55:20.709Z,10.50
2019-02-16T09:57:56.896Z,10.70
2019-02-16T10:00:35.798Z,10.80
2019-02-16T10:03:20.777Z,10.90
2019-02-16T10:05:50.886Z,11.20
2019-02-16T10:08:33.511Z,11.50
2019-02-16T10:11:20.224Z,12.00
2019-02-16T10:13:53.072Z,12.20
2019-02-16T10:16:34.873Z,12.30
2019-02-16T10:19:07.970Z,12.30
2019-02-16T10:21:54.342Z,12.50
2019-02-16T10:24:30.411Z,12.80
2019-02-16T10:27:03.194Z,13.20
2019-02-16T10:29:39.311Z,13.40
2019-02-16T10:32:26.019Z,13.50
2019-02-16T10:34:56.069Z,13.60
2019-02-16T10:37:29.065Z,13.80
2019-02-16T10:40:08.244Z,13.90
2019-02-16T10:42:53.873Z,13.80
2019-02-16T10:45:40.789Z,13.60
2019-02-16T10:48:10.929Z,13.80
2019-02-16T10:50:50.146Z,14.30
2019-02-16T10:53:20.202Z,14.60
2019-02-16T10:55:50.261Z,14.70
2019-02-16T10:58:22.754Z,14.40
2019-02-16T11:00:52.843Z,14.10
2019-02-16T11:03:32.174Z,14.00
2019-02-16T11:06:05.270Z,13.70
2019-02-16T11:08:35.660Z,13.90
2019-02-16T11:11:22.269Z,14.00
2019-02-16T11:13:58.402Z,13.80
2019-02-16T11:16:31.497Z,13.70
2019-02-16T11:19:13.751Z,13.80
2019-02-16T11:21:52.292Z,13.70
2019-02-16T11:24:36.182Z,13.50
2019-02-16T11:27:22.826Z,13.20
2019-02-16T11:30:24.245Z,13.10
2019-02-16T11:33:00.068Z,13.00
2019-02-16T11:35:30.144Z,12.90
2019-02-16T11:38:00.254Z,13.00
2019-02-16T11:40:36.032Z,13.00
2019-02-16T11:43:06.106Z,12.80
2019-02-16T11:45:38.889Z,12.80
2019-02-16T11:48:21.298Z,12.80
2019-02-16T11:51:03.574Z,12.80
2019-02-16T11:53:42.978Z,12.80
2019-02-16T11:56:19.101Z,12.80
2019-02-16T11:59:05.386Z,12.80
2019-02-16T12:01:44.553Z,12.80
2019-02-16T12:04:31.072Z,12.70
2019-02-16T12:07:01.478Z,12.70
2019-02-16T12:09:40.927Z,12.60
2019-02-16T12:12:11.374Z,12.60
2019-02-16T12:14:47.385Z,12.50
2019-02-16T12:17:17.441Z,12.40
2019-02-16T12:19:47.509Z,12.50
2019-02-16T12:22:17.574Z,12.50
2019-02-16T12:25:04.791Z,12.50
2019-02-16T12:27:22.165Z,12.50
2019-02-16T12:29:58.048Z,12.60
2019-02-16T12:32:46.259Z,12.60
2019-02-16T12:35:28.050Z,12.60
2019-02-16T12:37:58.138Z,12.60
2019-02-16T12:40:28.213Z,12.60
2019-02-16T12:43:04.289Z,12.60
2019-02-16T12:45:51.443Z,12.60
2019-02-16T12:48:22.014Z,12.60
2019-02-16T12:51:10.084Z,12.70
2019-02-16T12:53:52.042Z,12.70
2019-02-16T12:56:34.061Z,12.70
2019-02-16T12:59:04.134Z,12.70
2019-02-16T13:01:34.189Z,12.80
2019-02-16T13:04:04.319Z,12.80
2019-02-16T13:06:34.381Z,12.70
2019-02-16T13:09:04.463Z,12.80
2019-02-16T13:11:51.048Z,12.80
2019-02-16T13:14:24.298Z,13.00
2019-02-16T13:17:03.065Z,13.00
2019-02-16T13:19:33.158Z,13.10
2019-02-16T13:22:03.324Z,13.10
2019-02-16T13:24:45.452Z,13.10
2019-02-16T13:27:24.556Z,13.20
2019-02-16T13:30:03.584Z,13.20
2019-02-16T13:32:39.754Z,13.30
2019-02-16T13:35:12.377Z,13.30
2019-02-16T13:37:48.495Z,13.30
2019-02-16T13:40:18.817Z,13.30
2019-02-16T13:42:48.861Z,13.40
2019-02-16T13:45:18.911Z,13.40
2019-02-16T13:47:48.993Z,13.50
2019-02-16T13:50:21.681Z,13.50
2019-02-16T13:52:54.669Z,13.50
2019-02-16T13:55:33.249Z,13.50
2019-02-16T13:57:59.253Z,13.40
2019-02-16T14:00:32.137Z,13.50
2019-02-16T14:03:18.743Z,13.50
2019-02-16T14:05:54.266Z,13.50
2019-02-16T14:08:42.117Z,13.50
2019-02-16T14:11:18.015Z,13.50
2019-02-16T14:13:48.114Z,13.50
2019-02-16T14:16:18.207Z,13.40
2019-02-16T14:18:46.621Z,13.50
2019-02-16T14:21:15.080Z,13.40
2019-02-16T14:23:43.482Z,13.50
2019-02-16T14:26:12.228Z,13.40
2019-02-16T14:28:40.707Z,13.40
2019-02-16T14:31:09.251Z,13.40
2019-02-16T14:33:37.691Z,13.40
2019-02-16T14:36:06.731Z,13.30
2019-02-16T14:38:40.953Z,13.30
2019-02-16T14:41:09.401Z,13.30
2019-02-16T14:43:37.831Z,13.50
2019-02-16T14:46:06.280Z,13.40
2019-02-16T14:48:34.705Z,13.40
2019-02-16T14:51:03.154Z,13.50
2019-02-16T14:53:31.588Z,13.50
2019-02-16T14:56:00.076Z,13.50
2019-02-16T14:58:28.810Z,13.40
2019-02-16T15:00:57.300Z,13.30
2019-02-16T15:03:25.704Z,13.30
2019-02-16T15:05:54.169Z,13.30
2019-02-16T15:08:22.665Z,13.30
2019-02-16T15:10:51.077Z,13.40
2019-02-16T15:13:19.508Z,13.40
2019-02-16T15:15:47.965Z,13.50
2019-02-16T15:18:16.688Z,13.40
2019-02-16T15:20:45.113Z,13.30
2019-02-16T15:23:13.636Z,13.20
2019-02-16T15:25:42.080Z,13.20
2019-02-16T15:28:10.505Z,13.10
2019-02-16T15:30:38.901Z,13.20
2019-02-16T15:33:07.866Z,13.10
2019-02-16T15:35:36.272Z,13.10
2019-02-16T15:38:04.825Z,13.10
2019-02-16T15:40:33.237Z,13.10
2019-02-16T15:43:01.725Z,13.10
2019-02-16T15:45:30.177Z,13.10
2019-02-16T15:47:58.606Z,13.10
2019-02-16T15:50:27.047Z,13.00
2019-02-16T15:52:55.471Z,13.00
2019-02-16T15:55:23.918Z,12.90
2019-02-16T15:57:52.433Z,13.00
2019-02-16T16:00:22.539Z,13.00
2019-02-16T16:02:51.047Z,12.90
2019-02-16T16:05:19.553Z,12.90
2019-02-16T16:07:49.614Z,12.80
2019-02-16T16:10:22.474Z,12.80
2019-02-16T16:12:58.280Z,12.80
2019-02-16T16:15:43.168Z,12.70
2019-02-16T16:18:30.622Z,12.70
2019-02-16T16:21:00.996Z,12.60
2019-02-16T16:23:33.501Z,12.60
2019-02-16T16:26:06.571Z,12.50
2019-02-16T16:28:39.713Z,12.50
2019-02-16T16:31:24.608Z,12.50
2019-02-16T16:34:10.846Z,12.40
2019-02-16T16:36:53.518Z,12.40
2019-02-16T16:39:23.582Z,12.30
2019-02-16T16:42:03.063Z,12.20
2019-02-16T16:44:36.074Z,12.10
2019-02-16T16:47:22.425Z,11.90
2019-02-16T16:50:04.532Z,11.90
2019-02-16T16:52:51.133Z,11.80
2019-02-16T16:55:21.211Z,11.70
2019-02-16T16:58:06.796Z,11.70
2019-02-16T17:00:46.045Z,11.60
2019-02-16T17:03:34.471Z,11.50
2019-02-16T17:06:07.278Z,11.40
2019-02-16T17:08:53.562Z,11.20
2019-02-16T17:11:40.434Z,11.10
2019-02-16T17:14:13.033Z,11.00
2019-02-16T17:16:55.844Z,10.90
2019-02-16T17:19:26.717Z,10.70
2019-02-16T17:22:05.512Z,10.60
2019-02-16T17:24:35.588Z,10.40
2019-02-16T17:27:08.045Z,10.30
2019-02-16T17:29:57.483Z,10.20
2019-02-16T17:32:30.633Z,10.10
2019-02-16T17:35:17.305Z,9.90
2019-02-16T17:37:50.331Z,9.70
2019-02-16T17:40:20.409Z,9.60
2019-02-16T17:42:56.465Z,9.60
2019-02-16T17:45:38.690Z,9.50
2019-02-16T17:48:08.850Z,9.50
2019-02-16T17:50:47.710Z,9.50
2019-02-16T17:53:17.773Z,9.40
2019-02-16T17:55:47.853Z,9.20
2019-02-16T17:58:17.916Z,9.00
2019-02-16T18:00:56.991Z,8.90
2019-02-16T18:03:27.093Z,8.90
2019-02-16T18:06:03.226Z,8.80
2019-02-16T18:08:42.253Z,8.80
2019-02-16T18:11:27.630Z,8.90
2019-02-16T18:14:15.485Z,8.80
2019-02-16T18:16:45.606Z,8.70
2019-02-16T18:19:15.952Z,8.40
2019-02-16T18:21:52.019Z,8.30
2019-02-16T18:24:22.447Z,8.20
2019-02-16T18:26:56.498Z,8.20
2019-02-16T18:29:40.585Z,8.00
2019-02-16T18:32:31.180Z,7.80
2019-02-16T18:34:57.462Z,7.70
2019-02-16T18:37:28.352Z,7.60
2019-02-16T18:40:01.169Z,7.60
2019-02-16T18:42:31.349Z,7.40
2019-02-16T18:45:04.404Z,7.30
2019-02-16T18:47:50.645Z,7.30
2019-02-16T18:50:31.692Z,7.30
2019-02-16T18:53:07.549Z,7.30
2019-02-16T18:55:37.626Z,7.20
2019-02-16T18:58:13.790Z,7.00
2019-02-16T19:00:49.998Z,6.90
2019-02-16T19:03:20.045Z,6.80
2019-02-16T19:06:02.229Z,6.80
2019-02-16T19:08:41.187Z,6.80
2019-02-16T19:11:17.101Z,6.60
2019-02-16T19:14:03.179Z,6.40
2019-02-16T19:16:42.495Z,6.30
2019-02-16T19:19:18.642Z,6.20
2019-02-16T19:21:48.750Z,6.10
2019-02-16T19:24:31.289Z,6.00
2019-02-16T19:27:01.356Z,6.00
2019-02-16T19:29:43.344Z,6.10
2019-02-16T19:32:13.735Z,6.20
2019-02-16T19:34:46.711Z,6.20
2019-02-16T19:37:35.329Z,6.10
2019-02-16T19:40:06.071Z,5.90
2019-02-16T19:42:39.268Z,5.70
2019-02-16T19:45:11.521Z,5.60
2019-02-16T19:47:58.145Z,5.50
2019-02-16T19:50:35.112Z,5.40
2019-02-16T19:53:21.693Z,5.30
2019-02-16T19:55:52.108Z,5.20
2019-02-16T19:58:26.377Z,5.00
2019-02-16T20:01:13.227Z,5.00
2019-02-16T20:03:55.538Z,5.00
2019-02-16T20:06:28.590Z,5.00
2019-02-16T20:09:15.186Z,4.80
2019-02-16T20:11:53.958Z,4.70
2019-02-16T20:14:26.890Z,4.70
2019-02-16T20:17:09.197Z,4.60
2019-02-16T20:19:39.245Z,4.50
2019-02-16T20:22:27.572Z,4.30
2019-02-16T20:25:06.842Z,4.30
2019-02-16T20:27:37.745Z,4.40
2019-02-16T20:30:12.516Z,4.50
2019-02-16T20:32:53.709Z,4.50
2019-02-16T20:35:26.468Z,4.40
2019-02-16T20:38:11.863Z,4.30
2019-02-16T20:40:54.133Z,4.20
2019-02-16T20:43:27.159Z,4.10
2019-02-16T20:46:03.031Z,4.00
2019-02-16T20:48:33.445Z,3.90
2019-02-16T20:51:20.045Z,3.80
2019-02-16T20:53:50.122Z,3.80
2019-02-16T20:56:28.802Z,3.70
2019-02-16T20:59:15.584Z,3.70
2019-02-16T21:01:45.772Z,3.70
2019-02-16T21:04:15.893Z,3.70
2019-02-16T21:06:54.639Z,3.70
2019-02-16T21:09:25.005Z,3.80
2019-02-16T21:11:57.831Z,3.80
2019-02-16T21:14:27.893Z,3.90
2019-02-16T21:17:09.786Z,4.00
2019-02-16T21:19:56.222Z,4.00
2019-02-16T21:22:26.355Z,4.10
2019-02-16T21:24:59.255Z,4.10
2019-02-16T21:27:35.401Z,4.10
2019-02-16T21:30:12.165Z,4.10
2019-02-16T21:32:42.217Z,4.10
2019-02-16T21:35:15.217Z,4.00
2019-02-16T21:37:51.094Z,3.90
2019-02-16T21:40:36.405Z,3.70
2019-02-16T21:43:06.508Z,3.70
2019-02-16T21:45:36.939Z,3.70
2019-02-16T21:48:10.006Z,3.80
2019-02-16T21:50:56.533Z,3.80
2019-02-16T21:53:35.626Z,3.80
2019-02-16T21:56:11.449Z,3.80
2019-02-16T21:58:47.206Z,3.80
2019-02-16T22:01:17.307Z,3.70
2019-02-16T22:03:56.568Z,3.60
2019-02-16T22:06:29.352Z,3.50
2019-02-16T22:08:59.394Z,3.40
2019-02-16T22:11:32.422Z,3.30
2019-02-16T22:14:00.942Z,3.30
2019-02-16T22:16:29.364Z,3.30
2019-02-16T22:18:57.820Z,3.20
2019-02-16T22:21:26.249Z,3.30
2019-02-16T22:23:54.669Z,3.30
2019-02-16T22:26:23.129Z,3.40
2019-02-16T22:28:51.554Z,3.30
2019-02-16T22:31:19.985Z,3.40
2019-02-16T22:33:48.409Z,3.40
2019-02-16T22:36:16.853Z,3.40
2019-02-16T22:38:45.621Z,3.40
2019-02-16T22:41:14.073Z,3.40
2019-02-16T22:43:42.502Z,3.30
2019-02-16T22:46:10.918Z,3.20
2019-02-16T22:48:39.317Z,3.10
2019-02-16T22:51:07.750Z,3.10
2019-02-16T22:53:36.203Z,3.10
2019-02-16T22:56:04.641Z,3.20
2019-02-16T22:58:33.065Z,3.20
2019-02-16T23:01:01.742Z,3.20
2019-02-16T23:03:30.152Z,3.20
2019-02-16T23:05:58.605Z,3.10
2019-02-16T23:08:27.094Z,3.00
2019-02-16T23:10:55.505Z,2.80
2019-02-16T23:13:23.920Z,2.70
2019-02-16T23:15:52.343Z,2.80
2019-02-16T23:18:20.741Z,2.70
2019-02-16T23:20:49.414Z,2.70
2019-02-16T23:23:17.818Z,2.70
2019-02-16T23:25:46.241Z,2.70
2019-02-16T23:28:14.636Z,2.60
2019-02-16T23:30:43.052Z,2.50
2019-02-16T23:33:11.479Z,2.60
2019-02-16T23:35:39.942Z,2.60
2019-02-16T23:38:08.385Z,2.60
2019-02-16T23:40:36.821Z,2.50
2019-02-16T23:43:05.233Z,2.50
2019-02-16T23:45:33.633Z,2.40
2019-02-16T23:48:02.068Z,2.40
2019-02-16T23:50:30.467Z,2.40
2019-02-16T23:52:58.892Z,2.20
2019-02-16T23:55:27.334Z,2.20
2019-02-16T23:57:56.042Z,2.30
